Time;durP1;ratioP1;P1;durP2;ratioP2;P2;SDS_P1;SDS_P2;PMS_P1;PMS_P2;Temp;Humidity;BMP_temperature;BMP_pressure;BME280_temperature;BME280_humidity;BME280_pressure;Samples;Min_cycle;Max_cycle;Signal;HPM_P1;HPM_P2
2023/07/01 00:01:56;;;;;;;4.90;3.80;;;;;;;14.03;84.44;100199.27;107158;1257;74759;-71
2023/07/01 00:04:23;;;;;;;5.10;3.70;;;;;;;14.03;84.58;100196.48;107262;1259;72319;-70
2023/07/01 00:06:50;;;;;;;5.10;3.70;;;;;;;14.02;84.42;100196.39;106980;1256;72967;-71
2023/07/01 00:09:17;;;;;;;7.40;3.80;;;;;;;14.02;84.71;100191.59;106902;1256;61133;-72
2023/07/01 00:11:44;;;;;;;4.30;3.60;;;;;;;14.01;84.62;100187.71;106666;1261;61332;-72
2023/07/01 00:14:11;;;;;;;5.80;3.80;;;;;;;14.00;84.62;100187.09;107393;1256;74872;-70
2023/07/01 00:16:39;;;;;;;5.50;3.90;;;;;;;13.99;84.49;100185.30;106725;1256;71238;-71
2023/07/01 00:19:07;;;;;;;6.10;3.80;;;;;;;13.98;84.57;100185.95;106861;1256;71151;-71
2023/07/01 00:21:34;;;;;;;6.20;3.70;;;;;;;13.97;84.82;100183.08;107106;1257;61186;-73
2023/07/01 00:24:01;;;;;;;5.10;3.70;;;;;;;13.93;84.85;100176.16;107038;1256;61254;-72
2023/07/01 00:26:28;;;;;;;6.40;3.50;;;;;;;13.94;84.71;100177.44;106639;1257;73876;-71
2023/07/01 00:28:55;;;;;;;6.80;3.20;;;;;;;13.93;84.69;100178.45;106736;1257;69889;-71
2023/07/01 00:31:22;;;;;;;5.60;3.10;;;;;;;13.93;84.93;100177.55;107108;1256;72679;-71
2023/07/01 00:33:49;;;;;;;5.20;3.10;;;;;;;13.94;84.91;100176.04;106761;1257;61215;-70
2023/07/01 00:36:15;;;;;;;4.20;2.90;;;;;;;13.97;85.13;100171.60;106939;1257;61131;-71
2023/07/01 00:38:43;;;;;;;6.80;3.00;;;;;;;13.98;84.90;100168.32;107050;1256;74007;-72
2023/07/01 00:41:09;;;;;;;4.60;2.90;;;;;;;14.00;84.95;100164.70;107386;1256;69991;-72
2023/07/01 00:43:36;;;;;;;3.90;2.70;;;;;;;14.02;84.78;100163.38;106601;1256;621967;-71
2023/07/01 00:46:03;;;;;;;5.50;3.00;;;;;;;14.03;84.67;100159.64;107748;1257;61767;-73
2023/07/01 00:48:30;;;;;;;6.30;3.10;;;;;;;14.06;84.71;100153.77;107449;1260;61249;-70
2023/07/01 00:50:58;;;;;;;4.30;2.80;;;;;;;14.08;84.45;100152.77;107312;1261;74729;-70
2023/07/01 00:53:25;;;;;;;4.80;2.80;;;;;;;14.09;84.45;100150.69;106956;1257;71202;-70
2023/07/01 00:55:52;;;;;;;5.60;3.10;;;;;;;14.10;84.58;100149.89;107497;1257;71444;-71
2023/07/01 00:58:19;;;;;;;6.00;3.10;;;;;;;14.11;84.39;100144.56;107871;1256;60038;-70
2023/07/01 01:00:46;;;;;;;6.20;2.90;;;;;;;14.13;84.35;100140.33;107533;1257;61332;-70
2023/07/01 01:03:49;;;;;;;4.00;3.10;;;;;;;14.15;84.26;100137.02;107778;1257;75777;-72
2023/07/01 01:06:33;;;;;;;6.90;3.00;;;;;;;14.20;84.17;100137.82;106409;1265;71400;-71
2023/07/01 01:09:11;;;;;;;6.20;3.10;;;;;;;14.24;83.99;100136.83;108431;1257;72958;-74
2023/07/01 01:11:46;;;;;;;5.70;2.90;;;;;;;14.29;83.77;100135.14;107353;1257;61270;-72
2023/07/01 01:14:15;;;;;;;5.50;2.70;;;;;;;14.34;83.65;100130.73;106921;1259;61201;-72
2023/07/01 01:16:43;;;;;;;5.10;2.40;;;;;;;14.38;83.23;100132.27;106806;1256;75808;-72
2023/07/01 01:19:55;;;;;;;4.60;2.70;;;;;;;14.42;83.28;100135.13;107430;1257;70918;-73
2023/07/01 01:22:26;;;;;;;4.70;2.50;;;;;;;14.46;83.03;100129.34;106942;1257;71605;-70
2023/07/01 01:25:00;;;;;;;3.90;2.50;;;;;;;14.51;82.68;100128.35;107058;1258;61963;-74
2023/07/01 01:27:36;;;;;;;4.10;2.60;;;;;;;14.53;82.60;100125.88;106926;1259;60164;-73
2023/07/01 01:30:06;;;;;;;5.20;2.70;;;;;;;14.59;82.50;100124.10;106902;1257;76026;-71
2023/07/01 01:32:34;;;;;;;4.70;2.70;;;;;;;14.60;82.43;100117.72;106824;1261;70356;-72
2023/07/01 01:35:06;;;;;;;3.40;2.30;;;;;;;14.64;82.50;100116.13;107052;1257;72656;-71
2023/07/01 01:37:46;;;;;;;3.00;2.60;;;;;;;14.67;82.26;100110.23;107230;1260;61787;-71
2023/07/01 01:40:35;;;;;;;5.50;2.70;;;;;;;14.72;82.04;100112.14;106905;1259;61279;-72
2023/07/01 01:43:14;;;;;;;4.80;2.40;;;;;;;14.76;82.10;100105.33;106871;1261;75043;-69
2023/07/01 01:45:42;;;;;;;4.80;2.30;;;;;;;14.80;81.74;100106.11;107378;1259;70066;-70
2023/07/01 01:48:10;;;;;;;5.20;2.50;;;;;;;14.83;81.57;100106.80;106860;1256;72688;-71
2023/07/01 01:50:39;;;;;;;4.80;2.20;;;;;;;14.86;81.48;100102.09;107175;1260;61237;-71
2023/07/01 01:53:08;;;;;;;4.40;2.30;;;;;;;14.89;81.42;100097.17;107266;1261;61334;-72
2023/07/01 01:55:35;;;;;;;4.40;2.30;;;;;;;14.91;81.13;100090.66;107236;1262;74774;-71
2023/07/01 01:58:02;;;;;;;4.10;2.60;;;;;;;14.93;80.96;100091.52;106921;1257;71185;-71
2023/07/01 02:00:32;;;;;;;4.30;1.90;;;;;;;14.96;80.69;100088.83;107018;1257;71485;-71
2023/07/01 02:02:59;;;;;;;4.20;2.00;;;;;;;14.97;80.47;100089.71;107517;1256;61235;-72
2023/07/01 02:05:26;;;;;;;4.40;2.10;;;;;;;14.99;80.05;100082.59;106746;1257;61241;-71
2023/07/01 02:07:54;;;;;;;5.20;2.30;;;;;;;15.01;79.83;100077.02;106907;1255;75882;-71
2023/07/01 02:10:21;;;;;;;3.00;1.90;;;;;;;15.03;79.35;100074.05;106724;1263;70055;-72
2023/07/01 02:12:48;;;;;;;3.90;1.80;;;;;;;15.06;79.13;100071.42;107769;1256;72839;-71
2023/07/01 02:15:15;;;;;;;4.50;2.10;;;;;;;15.09;78.90;100069.18;106996;1257;61962;-71
2023/07/01 02:17:42;;;;;;;3.80;1.90;;;;;;;15.13;78.34;100062.91;107044;1257;61213;-71
2023/07/01 02:20:09;;;;;;;3.80;2.00;;;;;;;15.15;77.95;100061.85;107238;1259;74776;-71
2023/07/01 02:22:36;;;;;;;4.20;1.90;;;;;;;15.18;77.62;100052.21;107094;1257;70617;-70
2023/07/01 02:25:04;;;;;;;3.20;1.70;;;;;;;15.20;77.27;100047.63;107233;1256;71526;-72
2023/07/01 02:27:31;;;;;;;2.50;1.70;;;;;;;15.21;77.02;100042.38;107493;1260;61256;-71
2023/07/01 02:29:59;;;;;;;2.70;1.50;;;;;;;15.23;76.80;100040.20;107419;1257;59188;-72
2023/07/01 02:32:26;;;;;;;2.80;1.70;;;;;;;15.23;76.55;100043.14;107041;1257;73540;-71
2023/07/01 02:34:53;;;;;;;4.10;1.70;;;;;;;15.23;76.22;100033.73;106951;1257;69942;-72
2023/07/01 02:37:19;;;;;;;2.50;1.60;;;;;;;15.24;76.10;100031.46;107217;1258;72646;-71
2023/07/01 02:39:47;;;;;;;3.90;1.60;;;;;;;15.24;75.46;100025.22;106836;1259;62599;-72
2023/07/01 02:42:19;;;;;;;2.60;1.60;;;;;;;15.26;75.32;100025.01;106514;1256;61346;-72
2023/07/01 02:44:47;;;;;;;3.10;1.50;;;;;;;15.26;75.06;100021.64;107296;1257;73370;-71
2023/07/01 02:47:15;;;;;;;3.90;1.50;;;;;;;15.25;74.83;100014.73;107442;1257;71241;-71
2023/07/01 02:49:42;;;;;;;3.70;1.50;;;;;;;15.24;74.51;100006.55;106748;1257;72772;-71
2023/07/01 02:52:09;;;;;;;4.70;1.70;;;;;;;15.22;74.48;100003.99;106535;1260;61332;-70
2023/07/01 02:54:40;;;;;;;3.00;1.50;;;;;;;15.18;74.23;99996.50;107090;1257;61265;-71
2023/07/01 02:57:08;;;;;;;3.70;1.80;;;;;;;15.18;73.87;100001.08;107201;1256;73458;-69
2023/07/01 02:59:37;;;;;;;4.60;1.60;;;;;;;15.14;73.91;99996.80;106703;1260;71254;-71
2023/07/01 03:02:04;;;;;;;5.00;1.50;;;;;;;15.11;73.91;99992.45;106722;1257;71611;-71
2023/07/01 03:04:35;;;;;;;5.40;1.60;;;;;;;15.08;73.98;99991.92;107017;1257;61251;-71
2023/07/01 03:07:04;;;;;;;4.50;1.60;;;;;;;15.05;73.86;99987.89;107357;1256;62084;-70
2023/07/01 03:09:30;;;;;;;4.40;1.50;;;;;;;15.04;73.62;99987.16;106879;1259;74643;-70
2023/07/01 03:11:57;;;;;;;3.20;1.70;;;;;;;15.03;73.64;99992.30;106929;1257;70961;-73
2023/07/01 03:14:24;;;;;;;3.20;1.50;;;;;;;15.03;73.56;99991.56;107543;1258;61235;-70
2023/07/01 03:16:52;;;;;;;3.50;1.70;;;;;;;15.04;73.60;99993.15;107323;1259;62196;-71
2023/07/01 03:19:19;;;;;;;5.50;1.80;;;;;;;15.07;73.44;99990.95;107332;1257;61283;-71
2023/07/01 03:21:46;;;;;;;4.70;1.50;;;;;;;15.09;73.49;99989.95;107109;1256;73481;-71
2023/07/01 03:24:13;;;;;;;3.60;1.60;;;;;;;15.13;73.39;99985.77;107001;1258;70882;-70
2023/07/01 03:26:40;;;;;;;4.50;1.70;;;;;;;15.17;73.23;99983.21;107543;1257;71139;-70
2023/07/01 03:29:07;;;;;;;5.50;1.90;;;;;;;15.22;73.22;99980.73;107001;1257;61152;-71
2023/07/01 03:31:35;;;;;;;3.70;1.60;;;;;;;15.27;73.14;99980.46;107205;1257;61217;-73
2023/07/01 03:34:04;;;;;;;4.10;1.60;;;;;;;15.31;73.03;99979.68;106970;1256;74675;-71
2023/07/01 03:36:31;;;;;;;3.50;1.60;;;;;;;15.35;73.03;99978.71;107049;1256;69681;-73
2023/07/01 03:38:58;;;;;;;3.50;1.40;;;;;;;15.40;72.89;99980.10;107844;1257;71514;-70
2023/07/01 03:41:26;;;;;;;3.60;1.70;;;;;;;15.44;72.69;99973.36;108708;1256;62173;-71
2023/07/01 03:43:52;;;;;;;5.00;1.60;;;;;;;15.48;72.74;99969.77;107116;1256;61238;-72
2023/07/01 03:46:19;;;;;;;3.40;1.60;;;;;;;15.52;72.79;99968.66;107440;1257;73755;-71
2023/07/01 03:48:46;;;;;;;2.80;1.60;;;;;;;15.56;72.66;99965.30;107246;1257;71148;-72
2023/07/01 03:51:12;;;;;;;3.80;1.50;;;;;;;15.61;72.60;99966.92;107079;1257;72487;-69
2023/07/01 03:53:39;;;;;;;4.00;1.60;;;;;;;15.65;72.52;99964.29;106922;1256;61150;-71
2023/07/01 03:56:06;;;;;;;3.30;1.60;;;;;;;15.68;72.27;99967.50;106819;1257;59254;-72
2023/07/01 03:58:33;;;;;;;4.70;1.80;;;;;;;15.73;72.22;99967.00;106877;1256;74673;-72
2023/07/01 04:01:00;;;;;;;4.00;1.50;;;;;;;15.76;72.02;99962.85;106969;1257;70297;-71
2023/07/01 04:03:27;;;;;;;4.30;1.70;;;;;;;15.80;71.89;99960.25;107763;1257;71916;-70
2023/07/01 04:05:54;;;;;;;4.50;1.70;;;;;;;15.84;71.73;99957.02;106726;1257;61291;-70
2023/07/01 04:08:21;;;;;;;4.20;1.60;;;;;;;15.87;71.82;99954.33;107147;1259;59551;-71
2023/07/01 04:10:47;;;;;;;2.80;1.40;;;;;;;15.93;71.66;99952.53;107084;1257;74320;-71
2023/07/01 04:13:15;;;;;;;4.20;1.70;;;;;;;15.97;71.44;99947.73;106888;1257;72198;-70
2023/07/01 04:15:42;;;;;;;5.00;1.60;;;;;;;16.01;71.34;99941.21;107138;1256;71432;-71
2023/07/01 04:18:09;;;;;;;4.50;1.50;;;;;;;16.06;71.14;99936.93;106696;1256;61390;-70
2023/07/01 04:20:36;;;;;;;4.70;1.60;;;;;;;16.09;71.00;99936.15;107124;1256;60525;-70
2023/07/01 04:23:03;;;;;;;3.80;1.70;;;;;;;16.14;70.80;99934.02;107354;1258;73457;-71
2023/07/01 04:25:30;;;;;;;3.60;1.80;;;;;;;16.17;70.63;99932.12;107144;1257;70121;-71
2023/07/01 04:27:57;;;;;;;4.10;1.60;;;;;;;16.20;70.26;99933.09;107352;1257;73126;-71
2023/07/01 04:30:24;;;;;;;5.90;1.70;;;;;;;16.23;70.28;99927.61;107117;1260;61855;-71
2023/07/01 04:32:51;;;;;;;5.00;1.70;;;;;;;16.26;70.06;99924.30;106725;1257;61279;-73
2023/07/01 04:35:18;;;;;;;3.70;1.40;;;;;;;16.28;69.82;99914.30;107229;1256;74379;-71
2023/07/01 04:37:45;;;;;;;3.70;1.40;;;;;;;16.33;69.85;99918.11;106978;1257;70002;-70
2023/07/01 04:40:12;;;;;;;5.30;1.70;;;;;;;16.37;69.54;99917.75;107469;1260;72799;-71
2023/07/01 04:42:49;;;;;;;3.00;1.40;;;;;;;16.41;69.45;99915.13;107030;1257;61129;-71
2023/07/01 04:45:18;;;;;;;3.20;1.50;;;;;;;16.46;69.34;99907.59;107333;1257;61121;-70
2023/07/01 04:47:46;;;;;;;3.00;1.40;;;;;;;16.51;69.25;99899.02;106925;1263;74859;-71
2023/07/01 04:50:13;;;;;;;3.80;1.40;;;;;;;16.56;69.07;99901.65;106802;1260;69731;-71
2023/07/01 04:52:41;;;;;;;3.90;1.60;;;;;;;16.61;68.71;99897.21;106966;1260;72693;-71
2023/07/01 04:55:09;;;;;;;3.60;1.50;;;;;;;16.69;68.58;99899.27;107219;1257;60907;-71
2023/07/01 04:57:36;;;;;;;5.20;1.60;;;;;;;16.78;68.17;99894.78;107154;1256;61158;-71
2023/07/01 05:00:05;;;;;;;3.50;1.60;;;;;;;16.87;67.95;99891.58;107130;1256;73444;-70
2023/07/01 05:02:32;;;;;;;3.60;1.50;;;;;;;16.96;67.54;99887.16;107422;1256;69472;-70
2023/07/01 05:04:59;;;;;;;3.90;1.20;;;;;;;17.05;67.07;99882.15;107030;1257;72998;-71
2023/07/01 05:07:26;;;;;;;4.50;1.60;;;;;;;17.14;66.79;99883.67;107525;1256;61147;-70
2023/07/01 05:09:54;;;;;;;2.90;1.40;;;;;;;17.23;66.79;99876.21;106768;1263;61276;-70
2023/07/01 05:12:21;;;;;;;3.70;1.40;;;;;;;17.31;66.17;99877.50;106821;1260;74441;-70
2023/07/01 05:14:48;;;;;;;2.70;1.30;;;;;;;17.39;66.20;99875.39;107226;1256;73774;-71
2023/07/01 05:17:15;;;;;;;3.10;1.40;;;;;;;17.45;66.06;99873.70;107673;1256;72683;-70
2023/07/01 05:19:42;;;;;;;3.60;1.50;;;;;;;17.52;65.66;99866.95;106664;1258;62252;-71
2023/07/01 05:22:09;;;;;;;3.00;1.50;;;;;;;17.58;65.65;99864.48;107009;1256;61355;-71
2023/07/01 05:24:35;;;;;;;2.70;1.50;;;;;;;17.63;65.28;99863.83;106943;1257;76552;-69
2023/07/01 05:27:02;;;;;;;6.10;1.60;;;;;;;17.68;65.31;99859.08;107153;1256;70031;-70
2023/07/01 05:29:29;;;;;;;3.80;1.50;;;;;;;17.73;64.82;99857.39;107020;1257;71142;-70
2023/07/01 05:31:56;;;;;;;4.30;1.80;;;;;;;17.79;64.96;99858.66;106789;1257;62663;-70
2023/07/01 05:34:24;;;;;;;2.90;1.40;;;;;;;17.87;64.81;99856.21;107252;1256;61285;-70
2023/07/01 05:36:51;;;;;;;3.50;1.50;;;;;;;18.00;64.69;99856.09;107470;1257;73274;-72
2023/07/01 05:39:18;;;;;;;3.70;1.40;;;;;;;18.16;64.43;99852.09;106829;1257;71236;-70
2023/07/01 05:41:45;;;;;;;5.20;1.50;;;;;;;18.31;64.00;99850.70;107313;1257;71525;-70
2023/07/01 05:44:13;;;;;;;3.80;1.30;;;;;;;18.44;63.81;99850.08;107015;1256;61314;-70
2023/07/01 05:46:40;;;;;;;2.70;1.20;;;;;;;18.54;63.34;99849.14;107309;1256;60412;-71
2023/07/01 05:49:08;;;;;;;4.60;1.40;;;;;;;18.60;63.04;99848.45;107072;1256;74678;-70
2023/07/01 05:51:36;;;;;;;3.70;1.40;;;;;;;18.62;63.11;99846.77;107131;1257;71695;-70
2023/07/01 05:54:02;;;;;;;2.40;1.20;;;;;;;18.64;62.84;99843.85;107197;1256;71549;-71
2023/07/01 05:56:30;;;;;;;3.60;1.40;;;;;;;18.61;62.86;99842.08;107141;1257;62387;-72
2023/07/01 05:58:57;;;;;;;3.10;1.50;;;;;;;18.60;62.85;99842.49;107060;1257;61277;-73
2023/07/01 06:01:23;;;;;;;3.00;1.40;;;;;;;18.58;63.00;99843.97;107377;1256;75109;-71
2023/07/01 06:03:50;;;;;;;3.20;1.40;;;;;;;18.56;63.46;99842.70;106903;1257;70371;-70
2023/07/01 06:06:17;;;;;;;3.30;1.20;;;;;;;18.58;63.64;99846.93;106815;1259;72580;-72
2023/07/01 06:08:44;;;;;;;4.20;1.30;;;;;;;18.58;63.58;99842.89;107082;1256;62026;-71
2023/07/01 06:11:11;;;;;;;4.30;1.50;;;;;;;18.57;63.74;99836.55;107191;1256;61267;-73
2023/07/01 06:13:38;;;;;;;3.90;1.40;;;;;;;18.58;64.04;99834.30;106830;1257;73466;-73
2023/07/01 06:16:05;;;;;;;3.40;1.40;;;;;;;18.59;63.76;99833.90;108187;1256;71281;-71
2023/07/01 06:18:32;;;;;;;4.00;1.40;;;;;;;18.62;63.84;99829.80;108181;1256;70797;-71
2023/07/01 06:21:03;;;;;;;2.30;1.40;;;;;;;18.66;63.97;99827.11;106913;1256;62018;-72
2023/07/01 06:23:30;;;;;;;2.50;1.20;;;;;;;18.76;63.79;99823.85;107046;1256;61193;-72
2023/07/01 06:25:57;;;;;;;3.60;1.40;;;;;;;18.81;63.04;99821.73;107043;1256;73431;-69
2023/07/01 06:28:24;;;;;;;5.60;1.60;;;;;;;18.84;62.61;99820.73;107107;1256;69924;-70
2023/07/01 06:30:51;;;;;;;3.40;1.30;;;;;;;18.88;62.45;99817.13;107432;1256;71520;-71
2023/07/01 06:33:18;;;;;;;2.70;1.30;;;;;;;18.91;62.15;99813.93;107688;1257;61371;-71
2023/07/01 06:35:45;;;;;;;3.90;1.50;;;;;;;18.95;62.24;99813.02;107430;1256;61196;-71
2023/07/01 06:38:12;;;;;;;3.50;1.40;;;;;;;18.99;62.33;99811.45;107526;1257;75022;-70
2023/07/01 06:40:39;;;;;;;4.80;1.40;;;;;;;19.03;62.11;99816.12;107615;1256;69031;-71
2023/07/01 06:43:06;;;;;;;2.70;1.50;;;;;;;19.07;61.72;99811.38;108433;1256;72721;-70
2023/07/01 06:45:34;;;;;;;3.20;1.40;;;;;;;19.14;61.62;99807.41;107351;1260;61305;-71
2023/07/01 06:48:01;;;;;;;3.30;1.30;;;;;;;19.18;61.06;99800.17;107906;1256;59326;-70
2023/07/01 06:50:28;;;;;;;3.10;1.20;;;;;;;19.19;60.73;99800.64;107690;1257;74005;-70
2023/07/01 06:52:55;;;;;;;3.50;1.40;;;;;;;19.22;60.77;99802.82;107243;1259;69970;-71
2023/07/01 06:55:22;;;;;;;2.60;1.20;;;;;;;19.26;61.04;99800.38;107311;1256;72142;-70
2023/07/01 06:57:49;;;;;;;3.10;1.20;;;;;;;19.29;60.80;99802.08;106916;1258;61640;-71
2023/07/01 07:00:15;;;;;;;4.50;1.30;;;;;;;19.28;60.50;99802.77;107137;1257;59112;-69
2023/07/01 07:02:42;;;;;;;2.90;1.20;;;;;;;19.26;60.87;99802.31;107191;1256;75169;-69
2023/07/01 07:05:09;;;;;;;4.50;1.00;;;;;;;19.24;60.97;99800.95;107222;1256;70915;-71
2023/07/01 07:07:36;;;;;;;4.10;1.80;;;;;;;19.22;60.91;99794.64;107079;1257;71800;-70
2023/07/01 07:10:04;;;;;;;3.70;1.40;;;;;;;19.22;61.14;99791.36;106907;1256;61237;-70
2023/07/01 07:12:31;;;;;;;5.50;1.80;;;;;;;19.19;61.26;99784.35;107472;1258;61250;-70
2023/07/01 07:14:58;;;;;;;4.20;1.40;;;;;;;19.20;61.70;99781.88;106796;1258;74615;-71
2023/07/01 07:17:25;;;;;;;3.90;1.40;;;;;;;19.19;61.69;99783.69;107097;1256;70051;-72
2023/07/01 07:19:52;;;;;;;3.50;1.50;;;;;;;19.17;61.51;99786.69;107009;1256;72739;-70
2023/07/01 07:22:19;;;;;;;5.30;1.50;;;;;;;19.14;61.69;99783.27;108207;1256;61164;-73
2023/07/01 07:24:46;;;;;;;2.10;1.20;;;;;;;19.14;61.71;99779.18;108236;1256;61077;-71
2023/07/01 07:27:13;;;;;;;2.50;1.40;;;;;;;19.17;61.88;99777.92;107410;1256;74671;-71
2023/07/01 07:29:40;;;;;;;4.20;1.20;;;;;;;19.19;62.14;99773.15;107335;1257;69772;-71
2023/07/01 07:32:07;;;;;;;3.20;1.30;;;;;;;19.21;62.23;99769.95;107855;1256;72558;-70
2023/07/01 07:34:34;;;;;;;3.60;1.30;;;;;;;19.25;62.52;99763.21;107398;1256;61292;-71
2023/07/01 07:37:01;;;;;;;3.80;1.60;;;;;;;19.32;62.58;99764.95;107027;1257;61203;-72
2023/07/01 07:39:27;;;;;;;3.30;1.40;;;;;;;19.40;62.70;99763.13;107651;1256;74134;-72
2023/07/01 07:41:54;;;;;;;2.80;1.40;;;;;;;19.46;62.73;99761.73;106936;1256;71343;-71
2023/07/01 07:44:21;;;;;;;2.90;1.20;;;;;;;19.53;62.95;99758.45;106877;1256;71568;-72
2023/07/01 07:46:48;;;;;;;3.40;1.20;;;;;;;19.64;62.79;99753.75;107661;1256;61900;-72
2023/07/01 07:49:16;;;;;;;3.60;1.40;;;;;;;19.75;62.55;99754.61;107553;1256;61569;-71
2023/07/01 07:51:43;;;;;;;3.60;1.30;;;;;;;19.85;62.05;99750.25;106926;1256;73973;-70
2023/07/01 07:54:10;;;;;;;3.00;1.30;;;;;;;19.96;61.76;99744.84;107004;1259;70095;-70
2023/07/01 07:56:37;;;;;;;5.30;1.40;;;;;;;20.07;61.78;99739.35;107616;1256;72190;-71
2023/07/01 07:59:04;;;;;;;4.30;1.40;;;;;;;20.18;61.26;99739.58;107141;1255;61234;-73
2023/07/01 08:01:31;;;;;;;4.90;1.50;;;;;;;20.20;60.37;99735.21;107068;1256;61167;-71
2023/07/01 08:03:58;;;;;;;2.60;1.30;;;;;;;20.16;60.79;99734.02;106822;1256;73442;-71
2023/07/01 08:06:25;;;;;;;3.60;1.40;;;;;;;20.13;60.76;99733.30;107407;1256;69054;-70
2023/07/01 08:08:52;;;;;;;4.40;1.60;;;;;;;20.11;60.94;99733.56;107033;1256;73582;-71
2023/07/01 08:11:19;;;;;;;3.80;1.50;;;;;;;20.05;60.51;99729.91;106875;1257;61244;-72
2023/07/01 08:13:46;;;;;;;5.30;1.20;;;;;;;19.97;61.01;99731.21;107552;1256;61305;-73
2023/07/01 08:16:14;;;;;;;3.60;1.30;;;;;;;19.92;61.16;99729.15;108901;1255;75669;-73
2023/07/01 08:18:41;;;;;;;4.10;1.40;;;;;;;19.88;60.51;99724.44;108298;1258;70912;-73
2023/07/01 08:21:08;;;;;;;3.30;1.40;;;;;;;19.84;60.50;99724.73;106695;1259;71636;-73
2023/07/01 08:23:35;;;;;;;2.90;1.30;;;;;;;19.81;60.11;99723.05;106713;1257;61737;-71
2023/07/01 08:26:03;;;;;;;3.10;1.30;;;;;;;19.78;60.17;99726.20;105960;1262;61201;-73
2023/07/01 08:28:31;;;;;;;3.40;1.40;;;;;;;19.73;59.75;99726.23;106174;1262;75174;-71
2023/07/01 08:30:58;;;;;;;2.20;1.20;;;;;;;19.71;60.09;99722.34;106138;1257;71300;-71
2023/07/01 08:33:26;;;;;;;3.30;1.20;;;;;;;19.71;60.63;99725.30;106857;1256;72752;-72
2023/07/01 08:35:53;;;;;;;5.10;1.50;;;;;;;19.71;60.67;99727.12;106289;1256;61860;-71
2023/07/01 08:38:20;;;;;;;3.90;1.50;;;;;;;19.69;60.54;99729.35;107150;1256;59674;-72
2023/07/01 08:40:50;;;;;;;5.20;1.40;;;;;;;19.68;60.35;99728.22;106511;1257;73900;-71
2023/07/01 08:43:19;;;;;;;3.80;1.60;;;;;;;19.69;60.77;99725.39;107455;1261;70512;-72
2023/07/01 08:45:50;;;;;;;3.50;1.50;;;;;;;19.73;60.85;99722.02;108761;1256;70730;-71
2023/07/01 08:48:21;;;;;;;3.90;1.40;;;;;;;19.81;61.29;99714.60;108901;1256;59373;-72
2023/07/01 08:51:02;;;;;;;4.30;1.60;;;;;;;19.88;61.21;99712.86;108821;1257;59289;-73
2023/07/01 08:53:29;;;;;;;3.50;1.60;;;;;;;19.98;61.10;99710.81;108317;1256;75201;-72
2023/07/01 08:55:57;;;;;;;3.10;1.40;;;;;;;20.07;60.81;99712.16;106044;1256;71016;-71
2023/07/01 08:58:24;;;;;;;4.10;1.40;;;;;;;20.12;60.67;99709.86;106591;1257;73628;-71
2023/07/01 09:00:51;;;;;;;3.10;1.50;;;;;;;20.18;60.37;99704.79;106549;1256;61621;-73
2023/07/01 09:03:20;;;;;;;3.50;1.40;;;;;;;20.26;59.96;99703.79;106102;1261;61369;-71
2023/07/01 09:05:47;;;;;;;2.80;1.30;;;;;;;20.37;59.92;99702.00;106330;1258;74171;-70
2023/07/01 09:08:14;;;;;;;3.50;1.40;;;;;;;20.51;58.90;99699.89;106469;1257;71323;-72
2023/07/01 09:10:43;;;;;;;4.40;1.60;;;;;;;20.62;58.37;99699.52;107175;1257;71457;-72
2023/07/01 09:13:13;;;;;;;4.60;1.60;;;;;;;20.77;57.02;99699.17;106321;1255;61177;-70
2023/07/01 09:15:48;;;;;;;2.90;1.40;;;;;;;20.90;55.83;99698.23;106437;1256;63083;-72
2023/07/01 09:18:24;;;;;;;4.50;1.40;;;;;;;21.01;55.00;99700.94;107365;1256;74496;-71
2023/07/01 09:20:52;;;;;;;2.80;1.40;;;;;;;21.11;53.99;99691.83;106303;1255;70145;-70
2023/07/01 09:23:32;;;;;;;4.50;1.40;;;;;;;21.18;53.48;99698.29;105936;1257;72782;-71
2023/07/01 09:26:10;;;;;;;4.60;1.90;;;;;;;21.27;53.85;99690.90;106244;1257;61353;-72
2023/07/01 09:28:38;;;;;;;3.40;1.40;;;;;;;21.38;53.69;99686.86;106149;1256;61737;-71
2023/07/01 09:31:08;;;;;;;3.50;1.50;;;;;;;21.45;53.09;99682.12;106890;1259;74402;-71
2023/07/01 09:33:35;;;;;;;2.70;1.40;;;;;;;21.53;53.04;99681.20;106249;1256;69061;-72
2023/07/01 09:36:03;;;;;;;3.00;1.60;;;;;;;21.59;52.41;99677.79;106925;1256;71134;-75
2023/07/01 09:38:31;;;;;;;2.50;1.30;;;;;;;21.65;52.22;99682.27;106441;1257;62150;-71
2023/07/01 09:41:14;;;;;;;6.20;2.10;;;;;;;21.70;51.66;99684.56;106456;1256;61203;-72
2023/07/01 09:43:41;;;;;;;3.30;1.40;;;;;;;21.74;51.91;99679.27;106180;1256;74714;-74
2023/07/01 09:46:08;;;;;;;3.30;1.60;;;;;;;21.75;52.32;99678.77;106450;1256;69701;-72
2023/07/01 09:48:36;;;;;;;4.20;1.20;;;;;;;21.84;53.45;99675.30;106334;1256;71829;-73
2023/07/01 09:51:04;;;;;;;4.50;1.40;;;;;;;21.91;53.09;99676.14;106534;1256;61744;-72
2023/07/01 09:53:35;;;;;;;4.30;1.30;;;;;;;21.88;52.91;99678.15;105959;1257;61296;-74
2023/07/01 09:56:03;;;;;;;3.40;1.30;;;;;;;21.83;53.44;99675.95;107117;1256;74744;-72
2023/07/01 09:58:33;;;;;;;2.80;1.20;;;;;;;21.69;53.49;99680.36;106117;1259;71254;-71
2023/07/01 10:01:01;;;;;;;4.70;1.70;;;;;;;21.54;53.97;99681.84;106247;1257;72317;-74
2023/07/01 10:03:28;;;;;;;2.40;1.40;;;;;;;21.49;54.71;99682.06;106424;1256;61346;-72
2023/07/01 10:05:55;;;;;;;5.80;1.50;;;;;;;21.39;54.77;99682.77;106630;1256;62139;-75
2023/07/01 10:08:22;;;;;;;3.50;1.60;;;;;;;21.30;54.61;99683.52;107087;1259;74827;-73
2023/07/01 10:11:10;;;;;;;5.30;1.80;;;;;;;21.21;54.73;99686.48;106527;1256;70080;-72
2023/07/01 10:13:42;;;;;;;4.40;1.70;;;;;;;21.16;55.80;99679.73;106969;1256;72209;-74
2023/07/01 10:16:09;;;;;;;4.00;1.60;;;;;;;21.15;56.30;99679.09;106898;1256;61670;-74
2023/07/01 10:18:35;;;;;;;4.30;1.40;;;;;;;21.11;56.38;99680.82;106209;1259;61264;-73
2023/07/01 10:21:25;;;;;;;2.90;1.50;;;;;;;21.05;56.19;99674.57;106241;1257;73964;-73
2023/07/01 10:23:52;;;;;;;3.80;1.50;;;;;;;20.93;56.38;99678.92;106253;1255;69990;-73
2023/07/01 10:26:31;;;;;;;3.00;1.60;;;;;;;20.81;57.00;99678.26;106411;1257;71265;-75
2023/07/01 10:28:59;;;;;;;3.80;1.40;;;;;;;20.73;57.56;99685.97;106577;1259;61465;-76
2023/07/01 10:31:26;;;;;;;3.70;1.60;;;;;;;20.64;57.78;99676.29;106442;1256;61349;-75
2023/07/01 10:33:54;;;;;;;4.50;1.60;;;;;;;20.60;58.66;99678.11;106225;1256;73478;-71
2023/07/01 10:36:21;;;;;;;2.90;1.40;;;;;;;20.58;58.74;99678.20;106009;1257;70922;-72
2023/07/01 10:38:48;;;;;;;2.40;1.30;;;;;;;20.52;58.27;99671.71;106140;1257;71564;-73
2023/07/01 10:41:51;;;;;;;6.10;1.80;;;;;;;20.44;58.90;99674.66;106520;1257;61295;-74
2023/07/01 10:44:22;;;;;;;2.90;1.60;;;;;;;20.39;59.22;99670.38;106747;1256;60377;-72
2023/07/01 10:47:11;;;;;;;3.60;1.50;;;;;;;20.40;59.50;99671.30;106438;1256;76277;-72
2023/07/01 10:50:05;;;;;;;2.70;1.60;;;;;;;20.40;59.80;99672.92;108729;1256;69962;-76
2023/07/01 10:52:33;;;;;;;2.80;1.60;;;;;;;20.38;60.02;99671.30;108592;1256;71521;-74
2023/07/01 10:55:00;;;;;;;3.40;1.90;;;;;;;20.32;60.19;99668.25;106565;1256;62494;-73
2023/07/01 10:57:28;;;;;;;3.60;1.50;;;;;;;20.34;60.65;99659.75;107252;1256;61179;-73
2023/07/01 11:00:32;;;;;;;3.50;1.50;;;;;;;20.35;60.98;99661.32;106920;1256;74387;-75
2023/07/01 11:02:59;;;;;;;3.40;1.70;;;;;;;20.31;60.93;99660.73;108938;1256;70134;-72
2023/07/01 11:05:29;;;;;;;3.20;1.70;;;;;;;20.29;61.35;99664.38;106899;1257;71363;-73
2023/07/01 11:08:06;;;;;;;3.60;1.50;;;;;;;20.29;61.76;99665.66;106859;1256;61321;-71
2023/07/01 11:10:34;;;;;;;3.40;1.50;;;;;;;20.31;62.10;99666.80;107542;1256;61270;-71
2023/07/01 11:13:03;;;;;;;3.80;1.70;;;;;;;20.35;62.33;99666.27;106574;1256;74400;-73
2023/07/01 11:15:30;;;;;;;3.70;1.60;;;;;;;20.45;62.18;99664.95;106626;1256;69927;-72
2023/07/01 11:17:58;;;;;;;4.00;1.70;;;;;;;20.51;62.37;99666.16;106210;1260;71731;-72
2023/07/01 11:20:24;;;;;;;4.00;1.50;;;;;;;20.53;62.41;99678.08;106647;1256;61244;-71
2023/07/01 11:22:51;;;;;;;3.10;1.40;;;;;;;20.49;62.74;99670.52;106419;1256;61910;-73
2023/07/01 11:25:18;;;;;;;3.20;1.30;;;;;;;20.54;63.02;99672.31;106436;1257;75709;-73
2023/07/01 11:27:45;;;;;;;3.20;1.60;;;;;;;20.64;63.36;99672.08;106264;1256;71222;-72
2023/07/01 11:30:29;;;;;;;3.20;1.40;;;;;;;20.68;63.66;99686.22;106234;1257;71448;-72
2023/07/01 11:32:55;;;;;;;4.20;1.90;;;;;;;20.65;64.70;99679.70;106327;1256;61363;-73